Time;durP1;ratioP1;P1;durP2;ratioP2;P2;SDS_P1;SDS_P2;PMS_P1;PMS_P2;Temp;Humidity;BMP_temperature;BMP_pressure;BME280_temperature;BME280_humidity;BME280_pressure;Samples;Min_cycle;Max_cycle;Signal;HPM_P1;HPM_P2
2021/11/02 00:00:41;;;;;;;9.18;4.00;;;26.10;99.90;;;;;;4012449;29;20231;-69
2021/11/02 00:03:11;;;;;;;5.75;3.17;;;26.20;99.90;;;;;;4007393;29;20412;-67
2021/11/02 00:05:19;;;;;;;6.78;3.65;;;26.20;99.90;;;;;;3996736;29;20576;-68
2021/11/02 00:07:27;;;;;;;10.27;3.97;;;26.20;99.90;;;;;;4009863;29;20136;-68
2021/11/02 00:10:08;;;;;;;11.20;3.20;;;26.10;99.90;;;;;;3982267;29;20054;-68
2021/11/02 00:12:34;;;;;;;5.65;3.10;;;26.20;99.90;;;;;;3983569;29;20438;-68
2021/11/02 00:15:13;;;;;;;7.85;2.70;;;26.20;99.90;;;;;;3998798;29;20456;-68
2021/11/02 00:17:50;;;;;;;7.05;3.22;;;26.20;99.90;;;;;;3982627;29;20624;-67
2021/11/02 00:20:37;;;;;;;5.35;2.53;;;26.30;99.90;;;;;;4016925;29;20536;-68
2021/11/02 00:22:56;;;;;;;9.10;3.00;;;26.30;99.90;;;;;;4017506;29;20057;-67
2021/11/02 00:25:11;;;;;;;8.52;3.00;;;26.20;99.90;;;;;;3981724;29;20538;-68
2021/11/02 00:27:17;;;;;;;7.70;2.75;;;26.30;99.90;;;;;;3976329;29;20058;-68
2021/11/02 00:29:31;;;;;;;5.53;2.58;;;26.30;99.90;;;;;;3980920;29;20054;-69
2021/11/02 00:31:41;;;;;;;7.63;2.90;;;26.40;99.90;;;;;;3991405;29;20093;-68
2021/11/02 00:33:59;;;;;;;3.67;2.47;;;26.40;99.90;;;;;;3988925;29;20060;-67
2021/11/02 00:36:18;;;;;;;8.70;3.20;;;26.40;99.90;;;;;;4005532;29;20522;-68
2021/11/02 00:38:32;;;;;;;8.00;3.60;;;26.60;99.90;;;;;;4002927;29;20802;-69
2021/11/02 00:40:40;;;;;;;9.25;3.67;;;26.60;99.90;;;;;;4002183;29;20056;-67
2021/11/02 00:42:58;;;;;;;7.38;3.25;;;26.60;99.90;;;;;;4009322;29;20522;-68
2021/11/02 00:45:12;;;;;;;9.95;3.50;;;26.70;99.90;;;;;;4005645;29;20105;-68
2021/11/02 00:47:22;;;;;;;9.18;3.03;;;26.70;99.90;;;;;;4001610;29;20515;-67
2021/11/02 00:49:32;;;;;;;6.75;2.80;;;26.60;99.90;;;;;;4036268;29;20333;-68
2021/11/02 00:51:48;;;;;;;8.23;3.25;;;26.60;99.90;;;;;;4066059;28;20479;-67
2021/11/02 00:53:56;;;;;;;5.97;3.20;;;26.70;99.90;;;;;;4118360;28;20117;-68
2021/11/02 00:56:03;;;;;;;7.82;2.88;;;26.70;99.90;;;;;;4093171;28;20215;-68
2021/11/02 00:58:27;;;;;;;5.65;3.00;;;26.70;99.90;;;;;;4124674;28;20042;-68
2021/11/02 01:00:38;;;;;;;7.25;2.88;;;26.70;99.90;;;;;;4139459;28;20259;-67
2021/11/02 01:02:45;;;;;;;7.50;2.75;;;26.60;99.90;;;;;;4121838;28;20077;-68
2021/11/02 01:04:51;;;;;;;8.95;3.10;;;26.70;99.90;;;;;;4137631;28;20088;-67
2021/11/02 01:06:56;;;;;;;5.97;2.45;;;26.80;99.90;;;;;;4137823;28;20080;-67
2021/11/02 01:09:03;;;;;;;7.30;2.80;;;26.90;99.90;;;;;;4139251;28;20179;-67
2021/11/02 01:11:08;;;;;;;8.45;2.65;;;26.90;99.90;;;;;;4137972;28;20050;-67
2021/11/02 01:13:14;;;;;;;6.65;3.15;;;27.00;99.90;;;;;;4139160;28;20132;-67
2021/11/02 01:15:30;;;;;;;6.90;3.00;;;27.00;99.90;;;;;;4138717;28;20487;-67
2021/11/02 01:17:35;;;;;;;5.18;2.70;;;27.00;99.90;;;;;;4135723;28;20527;-67
2021/11/02 01:19:41;;;;;;;7.30;2.92;;;27.00;99.90;;;;;;4138858;28;20037;-68
2021/11/02 01:21:48;;;;;;;8.80;3.25;;;27.00;99.90;;;;;;4137802;28;20049;-68
2021/11/02 01:23:53;;;;;;;5.93;2.95;;;27.10;99.90;;;;;;4121731;28;20077;-68
2021/11/02 01:25:58;;;;;;;5.40;2.72;;;27.10;99.90;;;;;;4137409;28;20227;-66
2021/11/02 01:28:15;;;;;;;5.88;2.80;;;27.20;99.90;;;;;;4137095;28;20552;-66
2021/11/02 01:30:27;;;;;;;8.98;2.90;;;27.30;99.90;;;;;;4120282;28;20586;-66
2021/11/02 01:32:33;;;;;;;7.38;3.10;;;27.40;99.90;;;;;;4136767;28;20038;-66
2021/11/02 01:34:41;;;;;;;8.88;3.00;;;27.40;99.90;;;;;;4121433;28;20172;-69
2021/11/02 01:36:53;;;;;;;6.32;2.60;;;27.50;99.90;;;;;;4146866;28;20044;-68
2021/11/02 01:39:05;;;;;;;6.75;3.10;;;27.50;99.90;;;;;;4190277;28;20440;-66
2021/11/02 01:41:18;;;;;;;7.50;2.88;;;27.60;99.90;;;;;;4191378;28;20503;-67
2021/11/02 01:43:27;;;;;;;4.88;2.40;;;27.70;99.90;;;;;;4186317;28;20552;-67
2021/11/02 01:45:36;;;;;;;9.63;2.95;;;27.70;99.90;;;;;;4204208;28;20048;-67
2021/11/02 01:47:43;;;;;;;7.43;2.95;;;27.70;99.90;;;;;;4187803;28;20044;-67
2021/11/02 01:49:55;;;;;;;8.00;2.85;;;27.70;99.90;;;;;;4189267;28;20047;-67
2021/11/02 01:52:14;;;;;;;5.07;2.70;;;27.70;99.90;;;;;;4189613;28;20040;-68
2021/11/02 01:54:40;;;;;;;5.53;2.67;;;27.80;99.90;;;;;;4173188;28;20044;-68
2021/11/02 01:56:49;;;;;;;9.10;2.83;;;27.90;99.90;;;;;;4170802;28;20048;-68
2021/11/02 01:58:57;;;;;;;6.15;2.67;;;27.80;99.90;;;;;;4169787;28;20052;-68
2021/11/02 02:01:16;;;;;;;10.65;2.53;;;27.90;99.90;;;;;;4163087;28;20049;-68
2021/11/02 02:03:35;;;;;;;7.22;2.88;;;28.00;99.90;;;;;;4170477;28;20060;-68
2021/11/02 02:06:02;;;;;;;4.70;2.40;;;28.00;99.90;;;;;;4171379;28;20491;-68
2021/11/02 02:08:38;;;;;;;6.25;2.60;;;28.00;99.90;;;;;;4150943;28;20049;-69
2021/11/02 02:11:10;;;;;;;5.32;2.55;;;28.00;99.80;;;;;;4148518;28;20138;-69
2021/11/02 02:14:09;;;;;;;8.50;2.85;;;28.00;99.50;;;;;;4149877;28;20135;-70
2021/11/02 02:16:40;;;;;;;6.65;2.58;;;28.00;99.70;;;;;;4112345;28;20239;-66
2021/11/02 02:19:39;;;;;;;6.03;2.90;;;28.10;99.90;;;;;;4105508;28;20050;-67
2021/11/02 02:22:34;;;;;;;5.60;2.90;;;28.10;99.40;;;;;;4082180;28;20043;-68
2021/11/02 02:25:11;;;;;;;7.75;2.28;;;28.20;99.60;;;;;;4086937;28;20508;-68
2021/11/02 02:27:45;;;;;;;6.80;2.40;;;28.30;99.50;;;;;;4120514;28;20090;-68
2021/11/02 02:29:53;;;;;;;7.00;2.55;;;28.30;99.00;;;;;;4120580;28;20046;-68
2021/11/02 02:31:59;;;;;;;6.35;2.78;;;28.30;99.10;;;;;;4113714;28;20414;-68
2021/11/02 02:34:11;;;;;;;6.80;2.80;;;28.40;99.50;;;;;;4128774;28;20585;-68
2021/11/02 02:36:36;;;;;;;6.10;2.60;;;28.50;99.70;;;;;;4113566;28;20517;-67
2021/11/02 02:38:54;;;;;;;5.32;2.90;;;28.50;98.90;;;;;;4108265;28;20043;-67
2021/11/02 02:40:59;;;;;;;9.10;2.80;;;28.50;98.90;;;;;;4120322;28;20085;-67
2021/11/02 02:43:08;;;;;;;8.95;2.60;;;28.50;98.90;;;;;;4105594;28;20086;-67
2021/11/02 02:45:18;;;;;;;7.60;3.03;;;28.60;99.00;;;;;;4118090;28;20047;-70
2021/11/02 02:47:32;;;;;;;9.40;2.92;;;28.60;98.70;;;;;;4138497;28;20049;-67
2021/11/02 02:49:37;;;;;;;6.60;2.65;;;28.60;98.90;;;;;;4154995;28;20624;-67
2021/11/02 02:51:42;;;;;;;7.50;2.53;;;28.70;98.60;;;;;;4155313;28;20428;-66
2021/11/02 02:54:18;;;;;;;6.30;2.50;;;28.70;98.40;;;;;;4131949;28;20054;-67
2021/11/02 02:56:34;;;;;;;8.68;3.25;;;28.70;98.20;;;;;;4114247;28;20132;-67
2021/11/02 02:58:43;;;;;;;7.47;2.55;;;28.80;98.40;;;;;;4125022;28;20511;-67
2021/11/02 03:00:49;;;;;;;7.00;2.65;;;28.90;98.40;;;;;;4137505;28;20050;-68
2021/11/02 03:02:54;;;;;;;9.98;2.70;;;28.90;98.20;;;;;;4155056;28;20048;-67
2021/11/02 03:05:00;;;;;;;8.65;2.88;;;28.90;98.20;;;;;;4155912;28;20501;-68
2021/11/02 03:07:05;;;;;;;9.32;2.80;;;29.00;98.20;;;;;;4149592;28;20464;-66
2021/11/02 03:09:10;;;;;;;8.10;2.60;;;29.00;98.00;;;;;;4150982;28;20049;-68
2021/11/02 03:11:15;;;;;;;6.63;2.83;;;29.00;98.00;;;;;;4169774;28;20049;-68
2021/11/02 03:13:21;;;;;;;10.18;3.00;;;29.10;97.80;;;;;;4160420;28;20136;-67
2021/11/02 03:15:48;;;;;;;7.82;2.95;;;29.10;98.00;;;;;;4169928;28;20044;-68
2021/11/02 03:18:24;;;;;;;7.60;2.60;;;29.10;98.00;;;;;;4170837;28;20085;-67
2021/11/02 03:55:14;;;;;;;9.43;2.80;;;30.00;96.50;;;;;;4185131;28;20055;-68
2021/11/02 03:57:31;;;;;;;6.70;2.60;;;29.90;96.60;;;;;;4190796;28;20044;-68
2021/11/02 04:58:02;;;;;;;7.80;2.72;;;30.70;94.90;;;;;;4142666;28;20056;-67
2021/11/02 05:06:47;;;;;;;4.95;2.67;;;30.80;94.60;;;;;;4108582;28;20046;-67
2021/11/02 05:12:51;;;;;;;4.85;2.60;;;30.30;94.80;;;;;;4115779;28;20489;-66
2021/11/02 05:51:30;;;;;;;7.50;2.92;;;31.00;94.40;;;;;;4080834;29;20051;-67
2021/11/02 06:00:48;;;;;;;5.70;2.50;;;31.10;94.20;;;;;;4024990;29;20589;-68
2021/11/02 06:08:26;;;;;;;5.57;2.95;;;31.20;93.60;;;;;;4022805;29;20560;-68
2021/11/02 06:29:53;;;;;;;10.45;2.85;;;31.20;93.50;;;;;;4096711;28;20055;-68
2021/11/02 08:45:33;;;;;;;9.63;2.88;;;31.40;92.90;;;;;;4038540;29;20308;-69
2021/11/02 08:47:43;;;;;;;4.65;2.30;;;31.40;93.00;;;;;;4043573;29;20052;-69
2021/11/02 08:49:49;;;;;;;7.72;2.53;;;31.50;93.00;;;;;;4043200;29;20705;-70
2021/11/02 08:52:03;;;;;;;6.38;2.55;;;31.50;93.00;;;;;;4057078;29;20414;-69
2021/11/02 08:54:07;;;;;;;4.90;2.35;;;31.50;92.90;;;;;;4070194;29;20123;-69
2021/11/02 08:56:18;;;;;;;8.00;2.70;;;31.50;92.60;;;;;;4122463;28;20472;-70
2021/11/02 08:58:27;;;;;;;7.95;2.65;;;31.50;92.70;;;;;;4123628;28;20046;-68
2021/11/02 09:00:34;;;;;;;5.13;2.37;;;31.50;92.80;;;;;;4125094;28;20287;-69
2021/11/02 09:02:53;;;;;;;7.50;2.88;;;31.50;93.00;;;;;;4107573;28;20843;-69
2021/11/02 09:05:09;;;;;;;6.47;2.58;;;31.50;93.20;;;;;;4120910;28;20125;-70
2021/11/02 09:07:16;;;;;;;7.57;2.50;;;31.50;93.30;;;;;;4122829;28;20074;-67
2021/11/02 09:09:23;;;;;;;5.55;2.42;;;31.50;92.80;;;;;;4122934;28;20054;-69
2021/11/02 09:11:30;;;;;;;4.82;2.58;;;31.40;92.90;;;;;;4121129;28;20411;-67
2021/11/02 09:13:36;;;;;;;8.52;2.67;;;31.40;92.90;;;;;;4134306;28;20201;-68
2021/11/02 09:15:41;;;;;;;7.50;2.65;;;31.40;92.90;;;;;;4155749;28;20335;-69
2021/11/02 09:17:51;;;;;;;6.55;2.67;;;31.40;92.70;;;;;;4187728;28;20521;-68
2021/11/02 09:19:56;;;;;;;7.60;2.55;;;31.50;92.40;;;;;;4187101;28;20044;-69
2021/11/02 09:22:05;;;;;;;5.75;2.50;;;31.40;92.30;;;;;;4188707;28;20055;-69
2021/11/02 09:24:10;;;;;;;5.03;2.50;;;31.50;92.40;;;;;;4191021;28;20043;-69
2021/11/02 09:26:37;;;;;;;6.88;3.63;;;31.50;92.50;;;;;;4192467;28;20044;-68
2021/11/02 09:29:23;;;;;;;10.70;5.10;;;31.50;92.50;;;;;;4120885;28;20047;-70
2021/11/02 09:31:49;;;;;;;9.07;4.72;;;31.50;92.30;;;;;;4100526;28;20527;-68
2021/11/02 09:33:55;;;;;;;8.70;4.03;;;31.50;92.50;;;;;;4106893;28;20093;-68
2021/11/02 09:36:08;;;;;;;6.10;3.40;;;31.40;92.50;;;;;;4122960;28;20484;-68
2021/11/02 09:38:42;;;;;;;6.35;3.03;;;31.40;92.60;;;;;;4117274;28;20046;-69
2021/11/02 09:41:33;;;;;;;6.18;3.10;;;31.30;92.40;;;;;;4074805;29;20139;-68
2021/11/02 09:44:18;;;;;;;6.10;3.08;;;31.30;92.60;;;;;;4054667;29;20518;-70
2021/11/02 09:47:06;;;;;;;6.25;2.80;;;31.40;92.80;;;;;;3985344;29;20460;-69
2021/11/02 09:49:49;;;;;;;5.03;2.72;;;31.40;92.70;;;;;;3969976;29;20614;-69
2021/11/02 09:52:15;;;;;;;;;;;31.40;92.80;;;;;;3955912;29;20089;-69
2021/11/02 09:55:07;;;;;;;7.28;3.95;;;31.30;92.80;;;;;;3983363;29;19928;-69
2021/11/02 09:58:05;;;;;;;8.15;3.35;;;31.10;92.80;;;;;;3953576;29;20140;-69
2021/11/02 10:00:41;;;;;;;9.88;5.88;;;31.00;93.00;;;;;;3934798;30;20070;-69
2021/11/02 10:03:18;;;;;;;15.25;6.78;;;31.10;93.00;;;;;;3933930;30;20139;-68
2021/11/02 10:06:22;;;;;;;11.88;6.30;;;31.00;93.00;;;;;;3955436;29;20061;-69
2021/11/02 10:09:07;;;;;;;12.20;6.20;;;31.00;93.40;;;;;;4015743;29;20596;-68
2021/11/02 10:11:44;;;;;;;14.57;5.90;;;31.00;93.30;;;;;;3997740;29;20518;-68
2021/11/02 10:14:22;;;;;;;8.20;5.07;;;31.00;93.10;;;;;;4008534;29;20607;-68
2021/11/02 10:17:33;;;;;;;10.90;5.13;;;31.00;93.30;;;;;;3989806;29;20055;-69
2021/11/02 10:20:05;;;;;;;11.50;5.22;;;31.00;93.40;;;;;;4036555;29;20104;-67
2021/11/02 10:22:20;;;;;;;7.78;4.80;;;31.00;93.40;;;;;;4033814;29;20107;-69
2021/11/02 10:24:41;;;;;;;7.90;4.25;;;30.90;93.50;;;;;;4037289;29;20048;-68
2021/11/02 10:27:10;;;;;;;11.48;3.90;;;30.90;93.60;;;;;;4043790;29;21582;-69
2021/11/02 10:29:49;;;;;;;10.13;4.05;;;30.90;93.70;;;;;;4086461;28;20473;-67
2021/11/02 10:32:06;;;;;;;11.52;4.55;;;30.80;93.90;;;;;;4076022;28;20475;-68
2021/11/02 10:34:41;;;;;;;10.60;4.22;;;30.80;94.30;;;;;;4097826;28;20835;-68
2021/11/02 10:37:08;;;;;;;14.55;4.65;;;30.80;94.70;;;;;;4112868;28;20555;-68
2021/11/02 10:39:24;;;;;;;13.50;5.07;;;30.70;95.10;;;;;;4109867;28;20137;-68
2021/11/02 10:41:45;;;;;;;12.95;5.53;;;30.70;95.50;;;;;;4100395;28;20101;-67
2021/11/02 10:44:19;;;;;;;11.95;5.10;;;30.70;95.70;;;;;;4124146;28;20040;-67
2021/11/02 10:46:32;;;;;;;12.65;4.13;;;30.70;95.90;;;;;;4162705;28;20060;-68
2021/11/02 10:48:47;;;;;;;12.43;4.43;;;30.60;95.90;;;;;;4169219;28;20123;-68
2021/11/02 10:50:54;;;;;;;12.05;4.93;;;30.60;96.20;;;;;;4188666;28;20489;-68
2021/11/02 10:52:59;;;;;;;10.85;4.82;;;30.60;96.20;;;;;;4186139;28;20052;-67
2021/11/02 10:55:44;;;;;;;14.75;5.70;;;30.60;96.40;;;;;;4189589;28;20433;-66
2021/11/02 10:58:20;;;;;;;17.70;6.22;;;30.50;96.70;;;;;;4189657;28;20147;-68
2021/11/02 11:00:25;;;;;;;18.58;6.50;;;30.50;97.00;;;;;;4191172;28;20055;-67
2021/11/02 11:02:30;;;;;;;18.85;6.63;;;30.50;97.10;;;;;;4190558;28;20305;-67
2021/11/02 11:04:35;;;;;;;17.50;6.30;;;30.40;97.10;;;;;;4191316;28;20135;-68
2021/11/02 11:06:42;;;;;;;20.30;5.97;;;30.50;97.20;;;;;;4189575;28;20048;-68
2021/11/02 11:08:48;;;;;;;15.45;7.93;;;30.40;97.10;;;;;;4186191;28;20053;-68
2021/11/02 11:10:53;;;;;;;47.05;26.35;;;30.40;97.40;;;;;;4191075;28;20072;-68
2021/11/02 11:13:00;;;;;;;46.03;32.58;;;30.40;97.50;;;;;;4186818;28;20049;-67
2021/11/02 11:15:06;;;;;;;47.25;33.85;;;30.40;97.70;;;;;;4182983;28;20052;-69
2021/11/02 11:17:14;;;;;;;54.05;34.78;;;30.40;97.80;;;;;;4191034;28;20051;-69
2021/11/02 11:19:29;;;;;;;38.85;27.50;;;30.40;97.80;;;;;;4190997;28;20045;-68
2021/11/02 11:21:34;;;;;;;37.53;24.65;;;30.30;97.90;;;;;;4191085;28;20071;-68
2021/11/02 11:23:39;;;;;;;35.85;21.65;;;30.30;98.00;;;;;;4190506;28;20513;-68
2021/11/02 11:25:54;;;;;;;34.92;20.33;;;30.30;98.10;;;;;;4192553;28;20070;-68
2021/11/02 11:27:58;;;;;;;28.15;18.13;;;30.30;98.10;;;;;;4189224;28;20048;-68
2021/11/02 11:30:05;;;;;;;26.35;17.00;;;30.30;98.10;;;;;;4190870;28;20438;-69
2021/11/02 11:32:11;;;;;;;30.63;16.45;;;30.20;98.40;;;;;;4193513;28;20252;-67
2021/11/02 11:34:16;;;;;;;23.98;14.20;;;30.20;98.20;;;;;;4192071;28;20098;-68
2021/11/02 11:36:21;;;;;;;26.02;13.07;;;30.20;98.40;;;;;;4190418;28;20239;-68
2021/11/02 11:38:26;;;;;;;23.23;12.20;;;30.20;98.60;;;;;;4191021;28;20040;-67
2021/11/02 11:40:32;;;;;;;28.88;14.60;;;30.10;98.80;;;;;;4193396;28;20044;-67
2021/11/02 11:42:37;;;;;;;23.85;12.63;;;30.10;98.80;;;;;;4190317;28;20327;-69
2021/11/02 11:44:53;;;;;;;25.02;11.77;;;30.10;98.90;;;;;;4189310;28;20052;-69
2021/11/02 11:47:11;;;;;;;25.83;12.77;;;30.10;98.90;;;;;;4190440;28;20045;-67
2021/11/02 11:49:26;;;;;;;28.70;13.90;;;30.00;99.00;;;;;;4190242;28;20552;-66
2021/11/02 11:51:32;;;;;;;25.85;13.95;;;30.00;99.00;;;;;;4189489;28;20044;-70
2021/11/02 11:53:37;;;;;;;27.80;13.93;;;30.00;99.10;;;;;;4188263;28;20040;-67
2021/11/02 11:55:47;;;;;;;32.90;17.08;;;30.00;99.20;;;;;;4187374;28;20123;-67
2021/11/02 11:58:11;;;;;;;35.58;19.02;;;30.00;99.30;;;;;;4188622;28;20045;-67
2021/11/02 12:00:20;;;;;;;36.13;19.20;;;30.00;99.20;;;;;;4188455;28;20099;-66
2021/11/02 12:02:32;;;;;;;34.67;18.38;;;29.90;99.10;;;;;;4189012;28;20151;-66
2021/11/02 12:04:52;;;;;;;26.20;16.38;;;29.90;99.10;;;;;;4188804;28;20056;-66
2021/11/02 12:07:14;;;;;;;31.38;16.52;;;30.00;99.30;;;;;;4189030;28;20045;-67
2021/11/02 12:09:20;;;;;;;25.80;15.65;;;29.90;99.10;;;;;;4190066;28;20052;-66
2021/11/02 12:11:31;;;;;;;28.55;15.85;;;29.90;99.10;;;;;;4188847;28;20122;-67
2021/11/02 12:13:40;;;;;;;30.52;13.60;;;29.90;99.10;;;;;;4189256;28;20388;-67
2021/11/02 12:16:09;;;;;;;27.75;14.05;;;29.80;99.10;;;;;;4185689;28;20363;-66
2021/11/02 12:18:19;;;;;;;25.08;12.38;;;29.80;99.10;;;;;;4189985;28;21322;-67
2021/11/02 12:20:24;;;;;;;20.60;11.95;;;29.80;99.00;;;;;;4187983;28;20029;-66
2021/11/02 12:22:46;;;;;;;24.30;12.10;;;29.80;99.10;;;;;;4192940;28;20322;-66
2021/11/02 12:25:03;;;;;;;23.65;13.73;;;29.80;99.00;;;;;;4191285;28;20527;-66
2021/11/02 12:27:16;;;;;;;27.38;14.30;;;29.80;98.90;;;;;;4192593;28;20045;-65
2021/11/02 12:29:22;;;;;;;26.50;13.82;;;29.70;98.90;;;;;;4192932;28;20461;-65
2021/11/02 12:31:26;;;;;;;24.33;13.82;;;29.80;98.90;;;;;;4190033;28;20078;-65
2021/11/02 12:33:31;;;;;;;24.15;13.80;;;29.80;98.90;;;;;;4192004;28;20046;-65
2021/11/02 12:35:42;;;;;;;22.85;13.63;;;29.70;98.80;;;;;;4191090;28;20049;-65
2021/11/02 12:37:53;;;;;;;25.27;13.20;;;29.80;98.80;;;;;;4191392;28;20059;-65
2021/11/02 12:40:12;;;;;;;19.00;12.15;;;29.70;98.90;;;;;;4192822;28;20067;-67
2021/11/02 12:42:20;;;;;;;25.60;13.68;;;29.70;98.80;;;;;;4174772;28;20095;-67
2021/11/02 12:44:28;;;;;;;26.02;13.55;;;29.70;98.90;;;;;;4191937;28;20474;-66
2021/11/02 12:46:33;;;;;;;22.67;13.02;;;29.70;99.10;;;;;;4192047;28;20036;-67
2021/11/02 12:48:38;;;;;;;27.17;13.82;;;29.70;99.30;;;;;;4192743;28;20151;-66
2021/11/02 12:50:49;;;;;;;27.35;14.55;;;29.70;99.60;;;;;;4189382;28;20041;-67
2021/11/02 12:52:54;;;;;;;27.58;13.82;;;29.70;99.50;;;;;;4192911;28;20048;-66
2021/11/02 12:55:13;;;;;;;21.67;13.60;;;29.60;99.50;;;;;;4157345;28;20409;-66
2021/11/02 12:57:17;;;;;;;23.90;13.50;;;29.60;99.60;;;;;;4192222;28;20043;-67
2021/11/02 12:59:26;;;;;;;23.23;13.13;;;29.60;99.60;;;;;;4198636;28;20033;-67
2021/11/02 13:01:36;;;;;;;28.70;14.38;;;29.60;99.80;;;;;;4189146;28;20147;-66
2021/11/02 13:03:43;;;;;;;25.85;14.23;;;29.50;99.80;;;;;;4191894;28;20063;-67
2021/11/02 13:06:08;;;;;;;19.27;12.38;;;29.50;99.90;;;;;;4187898;28;20056;-67
2021/11/02 13:08:19;;;;;;;21.05;12.00;;;29.50;99.90;;;;;;4192002;28;20051;-67
2021/11/02 13:10:25;;;;;;;22.13;11.30;;;29.40;99.90;;;;;;4184494;28;20079;-68
2021/11/02 13:12:29;;;;;;;20.65;10.55;;;29.40;99.80;;;;;;4186099;28;20518;-66
2021/11/02 13:14:45;;;;;;;20.40;11.38;;;29.40;99.70;;;;;;4192282;28;20044;-66
2021/11/02 13:17:00;;;;;;;26.92;12.75;;;29.40;99.80;;;;;;4191941;28;20106;-66
2021/11/02 13:19:15;;;;;;;24.20;12.15;;;29.40;99.80;;;;;;4193280;28;20535;-68
2021/11/02 13:21:31;;;;;;;19.50;12.02;;;29.40;99.60;;;;;;4193053;28;20136;-66
2021/11/02 13:23:43;;;;;;;21.60;11.45;;;29.40;99.70;;;;;;4193014;28;20105;-67
2021/11/02 13:25:48;;;;;;;22.23;12.23;;;29.30;99.80;;;;;;4193883;28;20056;-67
2021/11/02 13:27:54;;;;;;;20.17;12.20;;;29.30;99.90;;;;;;4193216;28;20045;-68
2021/11/02 13:30:29;;;;;;;20.80;12.20;;;29.30;99.90;;;;;;4189921;28;20044;-67
2021/11/02 13:32:34;;;;;;;18.63;11.20;;;29.30;99.90;;;;;;4191776;28;20122;-67
2021/11/02 13:34:40;;;;;;;20.77;11.52;;;29.30;99.90;;;;;;4191757;28;20056;-67
2021/11/02 13:36:45;;;;;;;24.02;12.75;;;29.30;99.90;;;;;;4192592;28;20056;-67
2021/11/02 13:38:49;;;;;;;24.80;13.80;;;29.20;99.90;;;;;;4193622;28;20045;-68
2021/11/02 13:41:14;;;;;;;21.45;13.48;;;29.20;99.90;;;;;;4189551;28;20450;-66
2021/11/02 13:43:31;;;;;;;24.70;14.45;;;29.20;99.90;;;;;;4192477;28;20415;-68
2021/11/02 13:45:35;;;;;;;23.92;15.00;;;29.30;99.90;;;;;;4191251;28;20132;-66
2021/11/02 13:47:40;;;;;;;28.02;14.57;;;29.30;99.90;;;;;;4196125;28;20047;-67
2021/11/02 13:49:46;;;;;;;24.33;14.45;;;29.20;99.90;;;;;;4198229;28;20045;-67
2021/11/02 13:51:51;;;;;;;28.42;15.60;;;29.20;99.90;;;;;;4194247;28;20118;-67
2021/11/02 13:53:55;;;;;;;33.88;18.98;;;29.20;99.90;;;;;;4195110;28;20048;-67
2021/11/02 13:56:03;;;;;;;33.25;19.20;;;29.20;99.90;;;;;;4194564;28;20044;-67
2021/11/02 13:58:07;;;;;;;37.15;20.42;;;29.20;99.90;;;;;;4194900;28;20047;-68
2021/11/02 14:00:12;;;;;;;35.60;19.77;;;29.20;99.90;;;;;;4194349;28;20079;-67
2021/11/02 14:02:17;;;;;;;35.28;20.98;;;29.10;99.90;;;;;;4194399;28;20052;-68
2021/11/02 14:04:41;;;;;;;33.33;21.25;;;29.10;99.90;;;;;;4196335;28;20286;-67
2021/11/02 14:06:48;;;;;;;34.58;20.35;;;29.20;99.90;;;;;;4193673;28;20036;-68
2021/11/02 14:08:52;;;;;;;37.80;19.90;;;29.10;99.90;;;;;;4194459;28;20119;-67
2021/11/02 14:10:57;;;;;;;36.33;21.25;;;29.10;99.90;;;;;;4194145;28;20052;-67
2021/11/02 14:13:02;;;;;;;39.95;22.00;;;29.00;99.90;;;;;;4194113;28;20055;-68
2021/11/02 14:15:29;;;;;;;34.10;20.30;;;29.10;99.90;;;;;;4194336;28;20436;-68
2021/11/02 14:17:34;;;;;;;38.03;21.88;;;29.00;99.90;;;;;;4193948;28;20499;-66
2021/11/02 14:19:40;;;;;;;31.92;20.20;;;29.00;99.90;;;;;;4194086;28;20071;-67
2021/11/02 14:21:50;;;;;;;37.55;20.90;;;29.00;99.90;;;;;;4193769;28;20040;-67
2021/11/02 14:24:03;;;;;;;34.65;20.10;;;28.90;99.90;;;;;;4194039;28;20041;-67
2021/11/02 14:26:21;;;;;;;34.33;19.63;;;29.00;99.90;;;;;;4184137;28;20078;-67
2021/11/02 14:28:32;;;;;;;32.90;19.33;;;29.00;99.90;;;;;;4194005;28;20040;-67
2021/11/02 14:30:44;;;;;;;30.92;18.73;;;28.90;99.90;;;;;;4194275;28;20053;-67
2021/11/02 14:32:54;;;;;;;31.55;18.50;;;28.90;99.90;;;;;;4194222;28;20094;-67
2021/11/02 14:34:58;;;;;;;32.10;18.90;;;28.80;99.90;;;;;;4193633;28;20514;-67
2021/11/02 14:37:16;;;;;;;36.15;18.73;;;28.80;99.90;;;;;;4193857;28;20074;-67
2021/11/02 14:39:20;;;;;;;31.08;18.00;;;28.90;99.90;;;;;;4194611;28;20063;-69
2021/11/02 14:41:32;;;;;;;33.90;18.38;;;28.80;99.90;;;;;;4176126;28;20072;-67
2021/11/02 14:43:37;;;;;;;28.33;18.05;;;28.80;99.90;;;;;;4193646;28;20067;-66
2021/11/02 14:45:49;;;;;;;29.45;17.23;;;28.80;99.90;;;;;;4193742;28;20044;-67
2021/11/02 14:47:54;;;;;;;;;;;28.80;99.90;;;;;;4194406;28;20068;-67
2021/11/02 14:49:58;;;;;;;28.95;17.20;;;28.70;99.90;;;;;;4193793;28;19947;-67
2021/11/02 14:52:05;;;;;;;29.50;17.60;;;28.60;99.90;;;;;;4193604;28;20044;-67
2021/11/02 14:54:20;;;;;;;27.02;17.02;;;28.60;99.90;;;;;;4194243;28;20426;-67
2021/11/02 14:56:44;;;;;;;27.95;16.58;;;28.60;99.90;;;;;;4192909;28;20473;-67
2021/11/02 14:58:50;;;;;;;27.23;16.33;;;28.60;99.90;;;;;;4193669;28;20048;-67
2021/11/02 15:00:55;;;;;;;28.02;17.33;;;28.70;99.90;;;;;;4192449;28;20621;-67
2021/11/02 15:02:59;;;;;;;32.65;17.17;;;28.70;99.90;;;;;;4193373;28;20078;-67
2021/11/02 15:05:06;;;;;;;30.38;16.35;;;28.60;99.90;;;;;;4193949;28;20076;-67
2021/11/02 15:07:12;;;;;;;31.20;17.10;;;28.50;99.90;;;;;;4192586;28;20415;-67
2021/11/02 15:09:19;;;;;;;29.20;16.98;;;28.50;99.90;;;;;;4193393;28;20106;-67
2021/11/02 15:11:23;;;;;;;29.95;17.27;;;28.40;99.90;;;;;;4193870;28;20033;-67
2021/11/02 15:13:28;;;;;;;27.90;16.30;;;28.40;99.90;;;;;;4193898;28;20094;-66
2021/11/02 15:15:33;;;;;;;30.17;16.65;;;28.50;99.90;;;;;;4193148;28;20046;-67
2021/11/02 15:17:38;;;;;;;28.30;16.70;;;28.40;99.90;;;;;;4193234;28;20102;-67
2021/11/02 15:19:58;;;;;;;27.27;17.42;;;28.30;99.90;;;;;;4193385;28;20051;-67
2021/11/02 15:22:12;;;;;;;25.92;17.20;;;28.30;99.90;;;;;;4193178;28;20052;-67
2021/11/02 15:24:25;;;;;;;30.00;16.92;;;28.40;99.90;;;;;;4193291;28;20122;-67
2021/11/02 15:26:30;;;;;;;24.10;16.17;;;28.40;99.90;;;;;;4193878;28;20033;-66
2021/11/02 15:28:45;;;;;;;25.35;16.70;;;28.40;99.90;;;;;;4193047;28;20036;-67
2021/11/02 15:30:50;;;;;;;27.95;17.67;;;28.40;99.90;;;;;;4193648;28;20127;-67
2021/11/02 15:32:55;;;;;;;31.25;17.55;;;28.40;99.90;;;;;;4191726;28;20052;-67
2021/11/02 15:35:01;;;;;;;28.27;17.45;;;28.40;99.90;;;;;;4193851;28;20056;-67
2021/11/02 15:37:11;;;;;;;28.10;16.50;;;28.50;99.90;;;;;;4191961;28;20121;-66
2021/11/02 15:39:25;;;;;;;30.13;17.17;;;28.40;99.90;;;;;;4193166;28;20143;-69
2021/11/02 15:41:31;;;;;;;27.20;16.08;;;28.40;99.90;;;;;;4193185;28;20051;-67
2021/11/02 15:43:35;;;;;;;26.83;16.20;;;28.40;99.90;;;;;;4193295;28;20507;-67
2021/11/02 15:45:43;;;;;;;27.70;16.35;;;28.30;99.90;;;;;;4191960;28;20459;-67
2021/11/02 15:47:50;;;;;;;25.35;16.10;;;28.30;99.90;;;;;;4192799;28;20044;-67
2021/11/02 15:50:03;;;;;;;27.02;16.30;;;28.30;99.90;;;;;;4185634;28;20045;-67
2021/11/02 15:52:08;;;;;;;25.17;15.77;;;28.30;99.90;;;;;;4193651;28;20082;-67
2021/11/02 15:54:15;;;;;;;27.00;15.60;;;28.30;99.90;;;;;;4185239;28;20119;-68
2021/11/02 15:56:24;;;;;;;20.50;14.45;;;28.40;99.90;;;;;;4188304;28;20480;-66
2021/11/02 15:58:29;;;;;;;25.02;15.00;;;28.40;99.90;;;;;;4202760;28;20086;-66
2021/11/02 16:00:36;;;;;;;25.23;15.65;;;28.40;99.90;;;;;;4197941;28;20051;-67
2021/11/02 16:02:42;;;;;;;26.35;15.07;;;28.40;99.90;;;;;;4196285;28;20542;-67
2021/11/02 16:04:59;;;;;;;26.20;15.50;;;28.30;99.90;;;;;;4194940;28;20048;-67
2021/11/02 16:07:09;;;;;;;23.15;14.65;;;28.20;99.90;;;;;;4194706;28;20511;-67
2021/11/02 16:09:14;;;;;;;24.35;14.90;;;28.30;99.90;;;;;;4194411;28;20036;-67
2021/11/02 16:11:18;;;;;;;29.20;15.10;;;28.30;99.90;;;;;;4195231;28;20056;-68
2021/11/02 16:13:26;;;;;;;23.05;15.40;;;28.30;99.90;;;;;;4195821;28;20045;-68
2021/11/02 16:15:33;;;;;;;28.50;15.13;;;28.30;99.90;;;;;;4204740;28;20498;-67
2021/11/02 16:18:01;;;;;;;25.20;15.02;;;28.30;99.90;;;;;;4179036;28;20103;-67
2021/11/02 16:20:06;;;;;;;25.80;15.57;;;28.40;99.90;;;;;;4196392;28;20237;-67
2021/11/02 16:22:10;;;;;;;27.05;15.88;;;28.30;99.90;;;;;;4196324;28;20514;-68
2021/11/02 16:24:15;;;;;;;24.63;14.27;;;28.30;99.90;;;;;;4196108;28;20045;-67
2021/11/02 16:26:22;;;;;;;25.08;14.95;;;28.30;99.90;;;;;;4188378;28;20096;-66
2021/11/02 16:28:29;;;;;;;22.92;14.73;;;28.30;99.90;;;;;;4196439;28;20123;-67
2021/11/02 16:30:56;;;;;;;22.15;14.73;;;28.20;99.90;;;;;;4195041;28;20058;-66
2021/11/02 16:33:00;;;;;;;27.13;15.85;;;28.20;99.90;;;;;;4189421;28;20102;-67